KSPF/SPF METAR and TAF weather

Enter ICAO airport designator
Station Type Date Time Source
KSPF METAR 2022/06/28 07:15 UTC NOAA

KSPF 280715Z AUTO 00000KT 10SM CLR 12/07 A3024 RMK AO2


Station Type Date Time Source
KSPF Decoded METAR 2022/06/28 07:15 UTC NOAA

Spearfish / Clyde Ice, SD, United States (KSPF) 44-29N 103-47W
Jun 28, 2022 - 03:15 AM EDT / 2022.06.28 0715 UTC
Wind: Calm:0
Visibility: 10 mile(s):0
Sky conditions: clear
Temperature: 53 F (12 C)
Dew Point: 44 F (7 C)
Relative Humidity: 71%
Pressure (altimeter): 30.24 in. Hg (1024 hPa)
ob: KSPF 280715Z AUTO 00000KT 10SM CLR 12/07 A3024 RMK AO2
cycle: 7

Station Type Date Time Source
KSPF TAF UTC NOAA

Error!

Example: see airport list